Time;durP1;ratioP1;P1;durP2;ratioP2;P2;SDS_P1;SDS_P2;PMS_P1;PMS_P2;Temp;Humidity;BMP_temperature;BMP_pressure;BME280_temperature;BME280_humidity;BME280_pressure;Samples;Min_cycle;Max_cycle;Signal;HPM_P1;HPM_P2
2022/03/06 00:01:33;;;;;;;2.33;2.20;;;3.00;99.90;;;;;;5042066;28;20204;-62
2022/03/06 00:04:00;;;;;;;2.35;2.25;;;3.00;99.90;;;;;;5038261;28;20219;-63
2022/03/06 00:06:29;;;;;;;2.03;1.93;;;2.90;99.90;;;;;;5040885;28;20196;-63
2022/03/06 00:08:56;;;;;;;1.90;1.80;;;2.80;99.90;;;;;;5039432;28;20205;-63
2022/03/06 00:11:23;;;;;;;2.20;2.10;;;2.80;99.90;;;;;;5043267;28;20229;-61
2022/03/06 00:13:50;;;;;;;1.98;1.88;;;2.80;99.90;;;;;;5042776;28;20208;-64
2022/03/06 00:16:17;;;;;;;2.30;2.10;;;2.70;99.90;;;;;;5037986;28;20296;-63
2022/03/06 00:18:44;;;;;;;2.20;2.10;;;2.70;99.90;;;;;;5039957;28;20220;-64
2022/03/06 00:21:13;;;;;;;2.20;2.10;;;2.70;99.90;;;;;;5039056;28;20207;-64
2022/03/06 00:23:41;;;;;;;2.05;1.95;;;2.70;99.90;;;;;;5037300;28;20235;-63
2022/03/06 00:26:08;;;;;;;2.05;1.95;;;2.80;99.90;;;;;;5038071;28;20197;-64
2022/03/06 00:28:35;;;;;;;2.40;2.30;;;2.80;99.90;;;;;;5042908;28;20232;-63
2022/03/06 00:31:02;;;;;;;2.08;1.98;;;2.80;99.90;;;;;;5046919;28;20566;-64
2022/03/06 00:33:29;;;;;;;2.42;2.33;;;2.70;99.90;;;;;;5044822;28;20292;-64
2022/03/06 00:35:56;;;;;;;2.30;2.20;;;2.80;99.90;;;;;;5042289;28;20208;-64
2022/03/06 00:38:23;;;;;;;2.22;2.13;;;2.70;99.90;;;;;;5042258;28;20220;-62
2022/03/06 00:40:51;;;;;;;2.20;2.10;;;2.70;99.90;;;;;;5046023;28;20236;-64
2022/03/06 00:43:18;;;;;;;2.30;2.20;;;2.60;99.90;;;;;;5041729;28;20419;-66
2022/03/06 00:45:45;;;;;;;2.58;2.38;;;2.60;99.90;;;;;;5039603;28;20666;-62
2022/03/06 00:48:13;;;;;;;2.10;2.00;;;2.60;99.90;;;;;;5051289;28;20307;-63
2022/03/06 00:50:41;;;;;;;2.10;2.00;;;2.60;99.90;;;;;;5051544;28;20231;-63
2022/03/06 00:53:08;;;;;;;2.50;2.40;;;2.60;99.90;;;;;;5059770;28;20267;-64
2022/03/06 00:55:35;;;;;;;2.30;2.20;;;2.50;99.90;;;;;;5063530;28;20215;-63
2022/03/06 00:58:06;;;;;;;2.08;1.98;;;2.50;99.90;;;;;;5054804;28;20234;-64
2022/03/06 01:00:35;;;;;;;2.00;1.90;;;2.50;99.90;;;;;;5052298;28;20214;-62
2022/03/06 01:03:03;;;;;;;2.40;2.30;;;2.40;99.90;;;;;;5051121;28;20212;-63
2022/03/06 01:05:31;;;;;;;2.40;2.30;;;2.40;99.90;;;;;;5050157;28;20212;-63
2022/03/06 01:07:58;;;;;;;2.30;2.20;;;2.40;99.90;;;;;;5050269;28;20237;-64
2022/03/06 01:10:25;;;;;;;2.30;2.20;;;2.40;99.90;;;;;;5050482;28;20291;-62
2022/03/06 01:12:52;;;;;;;2.42;2.30;;;2.40;99.90;;;;;;5051184;28;20292;-61
2022/03/06 01:15:21;;;;;;;2.20;2.10;;;2.40;99.90;;;;;;5050884;28;20298;-63
2022/03/06 01:17:48;;;;;;;2.35;2.25;;;2.30;99.90;;;;;;5051036;28;20315;-63
2022/03/06 01:20:17;;;;;;;2.53;2.43;;;2.30;99.90;;;;;;5050852;28;20318;-63
2022/03/06 01:22:44;;;;;;;2.45;2.33;;;2.30;99.90;;;;;;5050379;28;20238;-63
2022/03/06 01:25:11;;;;;;;2.00;1.90;;;2.20;99.90;;;;;;5049617;28;20342;-63
2022/03/06 01:27:38;;;;;;;2.20;2.10;;;2.20;99.90;;;;;;5049583;28;20316;-63
2022/03/06 01:30:07;;;;;;;2.20;2.10;;;2.10;99.90;;;;;;5044361;28;20192;-62
2022/03/06 01:32:36;;;;;;;2.05;1.95;;;2.20;99.90;;;;;;5043997;28;20279;-64
2022/03/06 01:35:04;;;;;;;2.13;2.03;;;2.20;99.90;;;;;;5030570;28;20697;-64
2022/03/06 01:37:31;;;;;;;2.22;2.13;;;2.10;99.90;;;;;;5030204;28;20224;-62
2022/03/06 01:39:58;;;;;;;2.40;2.30;;;2.10;99.90;;;;;;5030214;28;20276;-64
2022/03/06 01:42:25;;;;;;;2.40;2.30;;;2.10;99.90;;;;;;5030495;28;20430;-62
2022/03/06 01:44:52;;;;;;;2.20;2.10;;;2.10;99.90;;;;;;5030087;28;20204;-63
2022/03/06 01:47:32;;;;;;;2.13;2.03;;;2.10;99.90;;;;;;5031776;28;20216;-64
2022/03/06 01:50:01;;;;;;;2.35;2.25;;;2.20;99.90;;;;;;5030614;28;20216;-62
2022/03/06 01:52:27;;;;;;;2.13;2.03;;;2.30;99.90;;;;;;5030239;28;20291;-63
2022/03/06 01:54:55;;;;;;;2.45;2.35;;;2.30;99.90;;;;;;5030339;28;20366;-64
2022/03/06 01:57:22;;;;;;;2.70;2.50;;;2.10;99.90;;;;;;5030715;28;20256;-63
2022/03/06 01:59:48;;;;;;;2.42;2.33;;;2.00;99.90;;;;;;5030337;28;20308;-63
2022/03/06 02:02:15;;;;;;;2.08;1.98;;;2.00;99.90;;;;;;5030370;28;20394;-64
2022/03/06 02:04:42;;;;;;;2.60;2.50;;;2.00;99.90;;;;;;5029804;28;20315;-62
2022/03/06 02:07:11;;;;;;;2.20;2.10;;;2.00;99.90;;;;;;5029519;28;20246;-64
2022/03/06 02:09:38;;;;;;;2.35;2.25;;;2.00;99.90;;;;;;5030216;28;20204;-63
2022/03/06 02:12:24;;;;;;;2.30;2.20;;;2.00;99.90;;;;;;5030322;28;20288;-63
2022/03/06 02:14:52;;;;;;;2.45;2.35;;;2.00;99.90;;;;;;5037559;28;20298;-63
2022/03/06 02:17:18;;;;;;;2.17;2.08;;;2.00;99.90;;;;;;5042994;28;20219;-63
2022/03/06 02:19:53;;;;;;;2.50;2.40;;;2.00;99.90;;;;;;5050883;28;20709;-62
2022/03/06 02:22:22;;;;;;;2.60;2.40;;;2.10;99.90;;;;;;5040510;28;20203;-64
2022/03/06 02:24:49;;;;;;;2.60;2.50;;;2.00;99.90;;;;;;5041599;28;20257;-62
2022/03/06 02:27:16;;;;;;;2.83;2.70;;;2.00;99.90;;;;;;5050041;28;20247;-63
2022/03/06 02:29:44;;;;;;;2.22;2.13;;;2.10;99.90;;;;;;5051536;28;20208;-62
2022/03/06 02:32:12;;;;;;;2.63;2.47;;;2.10;99.90;;;;;;5056167;28;20290;-62
2022/03/06 02:34:39;;;;;;;2.40;2.30;;;2.10;99.90;;;;;;5057415;28;20637;-63
2022/03/06 02:37:07;;;;;;;2.45;2.35;;;2.10;99.90;;;;;;5056790;28;20311;-63
2022/03/06 02:39:35;;;;;;;2.30;2.20;;;2.10;99.90;;;;;;5055781;28;20290;-63
2022/03/06 02:42:02;;;;;;;2.42;2.33;;;2.00;99.90;;;;;;5056459;28;20219;-62
2022/03/06 02:44:30;;;;;;;2.50;2.40;;;2.10;99.90;;;;;;5054325;28;20204;-63
2022/03/06 02:46:57;;;;;;;2.53;2.42;;;2.20;99.90;;;;;;5056955;28;20231;-64
2022/03/06 02:49:24;;;;;;;2.70;2.60;;;2.30;99.90;;;;;;5059153;28;20232;-63
2022/03/06 02:51:51;;;;;;;2.40;2.30;;;2.40;99.90;;;;;;5057931;28;20199;-64
2022/03/06 02:54:20;;;;;;;2.40;2.30;;;2.40;99.90;;;;;;5058325;28;20215;-64
2022/03/06 02:56:48;;;;;;;2.17;2.08;;;2.20;99.90;;;;;;5062508;28;20226;-63
2022/03/06 02:59:16;;;;;;;2.75;2.55;;;2.10;99.90;;;;;;5049745;28;20264;-64
2022/03/06 03:01:43;;;;;;;2.10;2.00;;;2.00;99.90;;;;;;5037017;28;20307;-64
2022/03/06 03:04:10;;;;;;;2.30;2.20;;;2.00;99.90;;;;;;5037214;28;20205;-64
2022/03/06 03:06:38;;;;;;;2.28;2.17;;;1.90;99.90;;;;;;5054093;28;20511;-64
2022/03/06 03:09:05;;;;;;;2.47;2.38;;;1.80;99.90;;;;;;5057937;28;20204;-64
2022/03/06 03:11:32;;;;;;;2.60;2.50;;;1.70;99.90;;;;;;5060921;28;20307;-64
2022/03/06 03:14:02;;;;;;;2.40;2.30;;;1.60;99.90;;;;;;5059939;28;20294;-62
2022/03/06 03:16:29;;;;;;;2.50;2.40;;;1.50;99.90;;;;;;5058751;28;20269;-64
2022/03/06 03:18:55;;;;;;;2.60;2.50;;;1.40;99.90;;;;;;5058333;28;20821;-62
2022/03/06 03:21:22;;;;;;;2.50;2.40;;;1.30;99.90;;;;;;5055224;28;20240;-62
2022/03/06 03:23:49;;;;;;;2.30;2.20;;;1.30;99.90;;;;;;5056353;28;20722;-63
2022/03/06 03:26:16;;;;;;;2.10;2.00;;;1.40;99.90;;;;;;5064081;28;20292;-63
2022/03/06 03:28:43;;;;;;;2.08;1.98;;;1.40;99.90;;;;;;5059934;28;20253;-63
2022/03/06 03:31:11;;;;;;;2.55;2.45;;;1.50;99.90;;;;;;5055784;28;20250;-64
2022/03/06 03:33:38;;;;;;;2.40;2.30;;;1.50;99.90;;;;;;5054759;28;20212;-62
2022/03/06 03:36:06;;;;;;;2.25;2.15;;;1.40;99.90;;;;;;5053700;28;20239;-63
2022/03/06 03:38:33;;;;;;;2.15;2.05;;;1.50;99.90;;;;;;5053991;28;20391;-63
2022/03/06 03:41:01;;;;;;;2.08;1.98;;;1.40;99.90;;;;;;5053308;28;20251;-64
2022/03/06 03:43:28;;;;;;;2.30;2.20;;;1.50;99.90;;;;;;5052606;28;20208;-63
2022/03/06 03:45:57;;;;;;;2.47;2.38;;;1.40;99.90;;;;;;5055930;28;20279;-64
2022/03/06 03:48:25;;;;;;;2.40;2.30;;;1.40;99.90;;;;;;5053643;28;20228;-63
2022/03/06 03:50:52;;;;;;;2.50;2.40;;;1.50;99.90;;;;;;5052766;28;20283;-63
2022/03/06 03:53:19;;;;;;;2.50;2.40;;;1.50;99.90;;;;;;5052904;28;20229;-63
2022/03/06 03:55:46;;;;;;;2.20;2.10;;;1.50;99.90;;;;;;5052300;28;20204;-63
2022/03/06 03:58:14;;;;;;;2.10;2.00;;;1.40;99.90;;;;;;5052100;28;20273;-64
2022/03/06 04:00:41;;;;;;;2.30;2.20;;;1.40;99.90;;;;;;5052402;28;20717;-63
2022/03/06 04:03:07;;;;;;;2.28;2.17;;;1.40;99.90;;;;;;5052004;28;20257;-63
2022/03/06 04:05:36;;;;;;;2.45;2.35;;;1.50;99.90;;;;;;5052346;28;20693;-63
2022/03/06 04:08:03;;;;;;;2.20;2.10;;;1.50;99.90;;;;;;5052797;28;20244;-62
2022/03/06 04:10:30;;;;;;;2.40;2.30;;;1.50;99.90;;;;;;5053681;28;20271;-62
2022/03/06 04:12:57;;;;;;;2.17;2.08;;;1.50;99.90;;;;;;5053670;28;20294;-61
2022/03/06 04:15:24;;;;;;;2.20;2.10;;;1.50;99.90;;;;;;5054120;28;20267;-62
2022/03/06 04:17:51;;;;;;;2.20;2.10;;;1.50;99.90;;;;;;5054129;28;20307;-62
2022/03/06 04:20:18;;;;;;;2.30;2.20;;;1.50;99.90;;;;;;5052941;28;20843;-63
2022/03/06 04:22:46;;;;;;;2.22;2.05;;;1.50;99.90;;;;;;5052056;28;20290;-63
2022/03/06 04:25:13;;;;;;;2.03;1.92;;;1.50;99.90;;;;;;5053845;28;20630;-63
2022/03/06 04:27:40;;;;;;;2.30;2.20;;;1.60;99.90;;;;;;5053609;28;20310;-62
2022/03/06 04:30:08;;;;;;;2.30;2.20;;;1.60;99.90;;;;;;5053784;28;20263;-62
2022/03/06 04:32:35;;;;;;;2.25;2.15;;;1.50;99.90;;;;;;5052371;28;20302;-63
2022/03/06 04:35:02;;;;;;;2.70;2.60;;;1.40;99.90;;;;;;5052661;28;20207;-62
2022/03/06 04:37:29;;;;;;;2.40;2.20;;;1.30;99.90;;;;;;5052577;28;20234;-64
2022/03/06 04:39:57;;;;;;;3.03;2.78;;;1.20;99.90;;;;;;5051717;28;20623;-62
2022/03/06 04:42:24;;;;;;;2.45;2.35;;;1.10;99.90;;;;;;5052108;28;20238;-64
2022/03/06 04:44:51;;;;;;;2.25;2.15;;;1.00;99.90;;;;;;5052390;28;20227;-64
2022/03/06 04:47:18;;;;;;;2.65;2.55;;;1.10;99.90;;;;;;5053578;28;20311;-63
2022/03/06 04:49:45;;;;;;;2.17;2.08;;;1.20;99.90;;;;;;5052127;28;20294;-64
2022/03/06 04:52:11;;;;;;;2.40;2.30;;;1.20;99.90;;;;;;5051286;28;20296;-63
2022/03/06 04:54:38;;;;;;;2.60;2.45;;;1.30;99.90;;;;;;5051390;28;20703;-64
2022/03/06 04:57:07;;;;;;;2.55;2.40;;;1.30;99.90;;;;;;5052469;28;20228;-63
2022/03/06 04:59:34;;;;;;;2.30;2.20;;;1.30;99.90;;;;;;5052706;28;20200;-62
2022/03/06 05:02:00;;;;;;;2.45;2.35;;;1.20;99.90;;;;;;5053809;28;20255;-62
2022/03/06 05:04:27;;;;;;;2.35;2.25;;;1.20;99.90;;;;;;5060366;28;20211;-63
2022/03/06 05:06:54;;;;;;;2.60;2.50;;;1.10;99.90;;;;;;5061644;28;20271;-63
2022/03/06 05:09:22;;;;;;;2.25;2.15;;;1.10;99.90;;;;;;5068242;28;20208;-63
2022/03/06 05:11:48;;;;;;;2.40;2.30;;;1.10;99.90;;;;;;5070358;28;20203;-63
2022/03/06 05:14:17;;;;;;;2.03;1.92;;;1.10;99.90;;;;;;5070750;28;20303;-63
2022/03/06 05:16:44;;;;;;;2.70;2.60;;;1.10;99.90;;;;;;5061649;28;20228;-63
2022/03/06 05:19:11;;;;;;;2.28;2.17;;;1.00;99.90;;;;;;5054309;28;20235;-64
2022/03/06 05:21:38;;;;;;;2.30;2.20;;;0.90;99.90;;;;;;5052787;28;20291;-62
2022/03/06 05:24:06;;;;;;;2.63;2.53;;;0.90;99.90;;;;;;5052827;28;20242;-63
2022/03/06 05:26:33;;;;;;;2.85;2.65;;;1.00;99.90;;;;;;5053148;28;20599;-62
2022/03/06 05:29:00;;;;;;;2.58;2.47;;;1.00;99.90;;;;;;5053028;28;20232;-64
2022/03/06 05:31:28;;;;;;;2.58;2.47;;;1.00;99.90;;;;;;5052900;28;20227;-63
2022/03/06 05:33:55;;;;;;;2.35;2.25;;;0.90;99.90;;;;;;5060490;28;20232;-63
2022/03/06 05:36:22;;;;;;;2.50;2.40;;;0.80;99.90;;;;;;5063403;28;20323;-65
2022/03/06 05:38:49;;;;;;;2.50;2.40;;;0.70;99.90;;;;;;5060880;28;20200;-63
2022/03/06 05:41:16;;;;;;;2.90;2.70;;;0.70;99.90;;;;;;5056332;28;20316;-63
2022/03/06 05:43:43;;;;;;;2.08;1.98;;;0.70;99.90;;;;;;5054896;28;20235;-63
2022/03/06 05:46:10;;;;;;;2.50;2.38;;;0.70;99.90;;;;;;5053318;28;20291;-63
2022/03/06 05:48:38;;;;;;;2.67;2.47;;;0.70;99.90;;;;;;5052586;28;20255;-62
2022/03/06 05:51:05;;;;;;;2.42;2.33;;;0.70;99.90;;;;;;5051936;28;20231;-62
2022/03/06 05:53:33;;;;;;;2.55;2.45;;;0.70;99.90;;;;;;5054744;28;20296;-62
2022/03/06 05:56:00;;;;;;;2.30;2.20;;;0.70;99.90;;;;;;5055779;28;20192;-63
2022/03/06 05:58:27;;;;;;;2.70;2.60;;;0.70;99.90;;;;;;5052433;28;20238;-63
2022/03/06 06:00:53;;;;;;;2.40;2.30;;;0.80;99.90;;;;;;5053138;28;20664;-63
2022/03/06 06:03:20;;;;;;;2.58;2.47;;;0.70;99.90;;;;;;5053310;28;20798;-62
2022/03/06 06:05:49;;;;;;;2.38;2.28;;;0.70;99.90;;;;;;5053057;28;20761;-63
2022/03/06 06:08:15;;;;;;;2.85;2.65;;;0.70;99.90;;;;;;5056017;28;20391;-62
2022/03/06 06:10:43;;;;;;;2.65;2.55;;;0.70;99.90;;;;;;5056744;28;20637;-63
2022/03/06 06:13:10;;;;;;;2.47;2.38;;;0.60;99.90;;;;;;5057908;28;20204;-63
2022/03/06 06:15:37;;;;;;;2.58;2.40;;;0.60;99.90;;;;;;5057790;28;20207;-63
2022/03/06 06:18:04;;;;;;;2.60;2.50;;;0.70;99.90;;;;;;5055009;28;21876;-63
2022/03/06 06:20:33;;;;;;;3.10;2.50;;;0.80;99.90;;;;;;5050961;28;20281;-63
2022/03/06 06:23:01;;;;;;;3.17;2.97;;;0.90;99.90;;;;;;5037870;28;20295;-63
2022/03/06 06:25:28;;;;;;;2.45;2.35;;;0.90;99.90;;;;;;5051923;28;20223;-62
2022/03/06 06:27:55;;;;;;;2.45;2.35;;;0.80;99.90;;;;;;5054890;28;20244;-63
2022/03/06 06:30:22;;;;;;;2.55;2.45;;;0.80;99.90;;;;;;5041040;28;20228;-64
2022/03/06 06:32:49;;;;;;;2.78;2.65;;;0.80;99.90;;;;;;5042383;28;20272;-64
2022/03/06 06:35:16;;;;;;;2.58;2.47;;;0.80;99.90;;;;;;5042051;28;20300;-63
2022/03/06 06:37:42;;;;;;;2.42;2.33;;;0.80;99.90;;;;;;5041232;28;20247;-64
2022/03/06 06:40:11;;;;;;;2.75;2.65;;;0.80;99.90;;;;;;5040862;28;20239;-63
2022/03/06 06:42:38;;;;;;;2.33;2.22;;;0.90;99.90;;;;;;5046007;28;20251;-63
2022/03/06 06:45:06;;;;;;;2.72;2.63;;;0.80;99.90;;;;;;5042103;28;20652;-62
2022/03/06 06:47:32;;;;;;;3.63;3.42;;;0.80;99.90;;;;;;5036109;28;20236;-63
2022/03/06 06:49:59;;;;;;;3.53;3.33;;;0.70;99.90;;;;;;5035323;28;20272;-63
2022/03/06 06:52:26;;;;;;;2.95;2.85;;;0.60;99.90;;;;;;5035490;28;20207;-62
2022/03/06 06:54:53;;;;;;;3.30;3.10;;;0.60;99.90;;;;;;5036368;28;20631;-61
2022/03/06 06:57:22;;;;;;;2.80;2.63;;;0.60;99.90;;;;;;5036798;28;20229;-63
2022/03/06 06:59:49;;;;;;;3.05;2.85;;;0.70;99.90;;;;;;5036804;28;20249;-63
2022/03/06 07:02:16;;;;;;;3.00;2.80;;;0.70;99.90;;;;;;5036263;28;20315;-62
2022/03/06 07:04:42;;;;;;;3.10;2.90;;;0.60;99.90;;;;;;5036386;28;20200;-64
2022/03/06 07:07:09;;;;;;;3.20;3.00;;;0.60;99.90;;;;;;5035855;28;20228;-63
2022/03/06 07:09:36;;;;;;;3.10;2.90;;;0.70;99.90;;;;;;5045298;28;20200;-63
2022/03/06 07:12:03;;;;;;;3.20;3.00;;;0.70;99.90;;;;;;5054958;28;20280;-62
2022/03/06 07:14:32;;;;;;;2.95;2.75;;;0.80;99.90;;;;;;5054674;28;20565;-62
2022/03/06 07:16:58;;;;;;;3.40;3.20;;;0.90;99.90;;;;;;5055800;28;20315;-63
2022/03/06 07:19:25;;;;;;;3.00;2.80;;;0.90;99.90;;;;;;5052741;28;20234;-63
2022/03/06 07:21:52;;;;;;;3.38;3.17;;;0.90;99.90;;;;;;5055948;28;20303;-62
2022/03/06 07:24:19;;;;;;;3.30;3.10;;;0.90;99.90;;;;;;5053826;28;20231;-62
2022/03/06 07:26:46;;;;;;;3.40;3.20;;;0.90;99.90;;;;;;5046269;28;20256;-63
2022/03/06 07:29:13;;;;;;;3.10;2.90;;;1.00;99.90;;;;;;5042210;28;20291;-64
2022/03/06 07:31:41;;;;;;;3.05;2.85;;;1.00;99.90;;;;;;5047509;28;20229;-63
2022/03/06 07:34:08;;;;;;;3.10;2.90;;;1.10;99.90;;;;;;5047912;28;20208;-64
2022/03/06 07:36:35;;;;;;;3.05;2.85;;;1.20;99.90;;;;;;5039641;28;20200;-62
2022/03/06 07:39:02;;;;;;;3.42;3.22;;;1.20;99.90;;;;;;5047933;28;20228;-63
2022/03/06 07:41:29;;;;;;;3.20;3.00;;;1.30;99.90;;;;;;5047406;28;20255;-64
2022/03/06 07:43:56;;;;;;;3.45;3.25;;;1.40;99.90;;;;;;5043892;28;20287;-63
2022/03/06 07:46:23;;;;;;;2.97;2.85;;;1.50;99.90;;;;;;5045176;28;20204;-62
2022/03/06 07:48:51;;;;;;;3.38;3.17;;;1.50;99.90;;;;;;5050144;28;20287;-63
2022/03/06 07:51:19;;;;;;;3.03;2.83;;;1.50;99.90;;;;;;5038552;28;20674;-62
2022/03/06 07:53:46;;;;;;;2.65;2.55;;;1.50;99.90;;;;;;5047554;28;20257;-63
2022/03/06 07:56:12;;;;;;;2.97;2.78;;;1.60;99.90;;;;;;5039165;28;20242;-63
2022/03/06 07:58:39;;;;;;;3.33;3.13;;;1.80;99.90;;;;;;5037971;28;20299;-63
2022/03/06 08:01:06;;;;;;;3.53;3.33;;;1.90;99.90;;;;;;5046860;28;20239;-62
2022/03/06 08:03:33;;;;;;;3.40;3.20;;;1.70;99.90;;;;;;5040830;28;20283;-62
2022/03/06 08:06:01;;;;;;;3.50;3.30;;;1.70;99.90;;;;;;5043034;28;20208;-64
2022/03/06 08:08:28;;;;;;;3.33;3.13;;;1.70;99.90;;;;;;5039910;28;20719;-63
2022/03/06 08:10:55;;;;;;;3.00;2.90;;;1.80;99.90;;;;;;5043312;28;20342;-63
2022/03/06 08:13:22;;;;;;;3.55;3.35;;;1.90;99.90;;;;;;5045197;28;20669;-62
2022/03/06 08:15:49;;;;;;;3.72;3.53;;;2.00;99.90;;;;;;5049412;28;20254;-62
2022/03/06 08:18:16;;;;;;;3.63;3.42;;;2.10;99.90;;;;;;5043123;28;20251;-63
2022/03/06 08:20:42;;;;;;;3.92;3.72;;;2.10;99.90;;;;;;5042132;28;20295;-62
2022/03/06 08:23:11;;;;;;;3.40;3.20;;;2.10;99.90;;;;;;5050955;28;20778;-63
2022/03/06 08:25:38;;;;;;;3.83;3.63;;;2.10;99.90;;;;;;5038279;28;20205;-63
2022/03/06 08:28:05;;;;;;;3.42;3.22;;;2.20;99.90;;;;;;5044575;28;20282;-64
2022/03/06 08:30:32;;;;;;;3.60;3.40;;;2.10;99.90;;;;;;5048570;28;20236;-64
2022/03/06 08:32:58;;;;;;;3.70;3.50;;;2.00;99.90;;;;;;5043069;28;20726;-64
2022/03/06 08:35:25;;;;;;;3.50;3.30;;;2.00;99.90;;;;;;5034301;28;20667;-63
2022/03/06 08:37:52;;;;;;;3.88;3.67;;;2.20;99.90;;;;;;5035602;28;20315;-64
2022/03/06 08:40:20;;;;;;;3.88;3.65;;;2.30;99.90;;;;;;5034300;28;20367;-62
2022/03/06 08:42:47;;;;;;;3.97;3.78;;;2.30;99.90;;;;;;5033909;28;20247;-64
2022/03/06 08:45:14;;;;;;;3.50;3.30;;;2.40;99.90;;;;;;5033728;28;20204;-62
2022/03/06 08:47:41;;;;;;;3.75;3.55;;;2.40;99.90;;;;;;5033441;28;20792;-62
2022/03/06 08:50:09;;;;;;;3.40;3.20;;;2.30;99.90;;;;;;5032690;28;20295;-63
2022/03/06 08:52:35;;;;;;;3.40;3.20;;;2.50;99.90;;;;;;5032260;28;20204;-63
2022/03/06 08:55:03;;;;;;;3.50;3.30;;;2.60;99.90;;;;;;5034384;28;20197;-64
2022/03/06 08:57:31;;;;;;;3.67;3.38;;;2.70;99.90;;;;;;5047453;28;20376;-63
2022/03/06 08:59:58;;;;;;;3.40;3.20;;;3.00;99.90;;;;;;5044182;28;20360;-62
2022/03/06 09:02:25;;;;;;;3.63;3.42;;;3.20;99.90;;;;;;5051072;28;20299;-62
2022/03/06 09:04:52;;;;;;;3.42;3.22;;;3.20;99.90;;;;;;5051681;28;20291;-62
2022/03/06 09:07:19;;;;;;;3.60;3.40;;;3.50;99.90;;;;;;5050579;28;20314;-64
2022/03/06 09:09:45;;;;;;;3.53;3.33;;;3.50;99.90;;;;;;5050565;28;20208;-61
2022/03/06 09:12:13;;;;;;;3.65;3.45;;;3.60;99.90;;;;;;5047027;28;20220;-62
2022/03/06 09:14:41;;;;;;;3.38;3.20;;;3.90;99.90;;;;;;5043692;28;20273;-62
2022/03/06 09:17:09;;;;;;;3.85;3.60;;;4.20;99.90;;;;;;5050243;28;20311;-62
2022/03/06 09:19:35;;;;;;;3.63;3.33;;;4.60;99.90;;;;;;5044515;28;20639;-64
2022/03/06 09:22:02;;;;;;;3.40;3.20;;;5.00;99.90;;;;;;5048235;28;20226;-63
2022/03/06 09:24:30;;;;;;;3.67;3.47;;;5.30;99.90;;;;;;5051135;28;20210;-63
2022/03/06 09:26:58;;;;;;;3.50;3.30;;;5.20;99.90;;;;;;5049653;28;20224;-63
2022/03/06 09:29:25;;;;;;;3.60;3.40;;;5.30;99.90;;;;;;5050526;28;20200;-64
2022/03/06 09:31:53;;;;;;;3.75;3.50;;;5.50;99.90;;;;;;5051075;28;20549;-63
2022/03/06 09:34:20;;;;;;;3.20;3.00;;;5.60;99.90;;;;;;5051213;28;20263;-62
2022/03/06 09:36:47;;;;;;;3.40;3.20;;;5.80;99.90;;;;;;5051649;28;20255;-62
2022/03/06 09:39:14;;;;;;;3.40;3.20;;;6.00;99.90;;;;;;5051808;28;20287;-63
2022/03/06 09:41:41;;;;;;;3.50;3.30;;;6.00;99.90;;;;;;5050336;28;20290;-62
2022/03/06 09:44:11;;;;;;;3.60;3.40;;;6.10;99.90;;;;;;5050747;28;20291;-63
2022/03/06 09:46:39;;;;;;;3.60;3.40;;;6.20;99.90;;;;;;5050771;28;20639;-64
2022/03/06 09:49:08;;;;;;;3.08;2.95;;;6.50;99.90;;;;;;5050956;28;20287;-64
2022/03/06 09:51:38;;;;;;;3.35;3.15;;;6.60;99.90;;;;;;5050199;28;20576;-63
2022/03/06 09:54:05;;;;;;;2.90;2.80;;;6.90;99.90;;;;;;5050029;28;20203;-64
2022/03/06 09:56:32;;;;;;;3.10;2.90;;;7.20;99.90;;;;;;5050940;28;20700;-63
2022/03/06 09:58:59;;;;;;;2.97;2.88;;;7.60;99.90;;;;;;5050846;28;20503;-62
2022/03/06 10:01:26;;;;;;;2.83;2.72;;;7.70;99.90;;;;;;5050916;28;20287;-64
2022/03/06 10:03:53;;;;;;;2.95;2.75;;;7.90;99.90;;;;;;5050306;28;20362;-62
2022/03/06 10:06:21;;;;;;;3.08;2.90;;;8.00;99.90;;;;;;5050469;28;20755;-64
2022/03/06 10:09:03;;;;;;;2.90;2.80;;;8.20;99.90;;;;;;5055610;28;20269;-64
2022/03/06 10:11:31;;;;;;;2.63;2.53;;;8.40;99.90;;;;;;5051951;28;20208;-64
2022/03/06 10:13:58;;;;;;;2.60;2.50;;;8.50;99.90;;;;;;5050205;28;20345;-64
2022/03/06 10:16:25;;;;;;;2.58;2.45;;;8.60;99.90;;;;;;5050624;28;20211;-63
2022/03/06 10:18:54;;;;;;;2.90;2.70;;;8.60;99.90;;;;;;5050730;28;20204;-62
2022/03/06 10:21:24;;;;;;;2.58;2.47;;;8.60;99.90;;;;;;5050476;28;20204;-63
2022/03/06 10:23:53;;;;;;;2.55;2.45;;;8.60;99.90;;;;;;5053287;28;20577;-63
2022/03/06 10:26:21;;;;;;;2.70;2.60;;;8.70;99.90;;;;;;5054798;28;20294;-63
2022/03/06 10:28:55;;;;;;;2.33;2.22;;;8.70;99.90;;;;;;5054944;28;20299;-62
2022/03/06 10:31:24;;;;;;;2.40;2.30;;;8.80;99.90;;;;;;5053091;28;20334;-63
2022/03/06 10:33:56;;;;;;;2.42;2.33;;;8.80;99.80;;;;;;5049892;28;20627;-62
2022/03/06 10:36:41;;;;;;;2.50;2.40;;;8.80;99.90;;;;;;5050317;28;20270;-64
2022/03/06 10:39:17;;;;;;;2.70;2.60;;;8.80;99.90;;;;;;5050664;28;20208;-64
2022/03/06 10:41:47;;;;;;;3.08;2.90;;;8.80;99.50;;;;;;5050537;28;20883;-63
2022/03/06 10:44:15;;;;;;;2.40;2.30;;;8.80;99.30;;;;;;5050079;28;20239;-63
2022/03/06 10:46:43;;;;;;;2.40;2.30;;;8.90;99.50;;;;;;5051864;28;20266;-64
2022/03/06 10:49:13;;;;;;;2.25;2.15;;;8.90;99.30;;;;;;5052274;28;20235;-63
2022/03/06 10:51:44;;;;;;;2.50;2.40;;;9.10;99.90;;;;;;5047853;28;20200;-64
2022/03/06 10:54:13;;;;;;;2.30;2.20;;;9.20;99.60;;;;;;5042907;28;20201;-65
2022/03/06 10:56:40;;;;;;;2.38;2.28;;;9.20;98.80;;;;;;5035140;28;20228;-62
2022/03/06 10:59:08;;;;;;;2.55;2.40;;;9.30;98.90;;;;;;5038325;28;20762;-63
2022/03/06 11:01:37;;;;;;;2.22;2.13;;;9.30;98.50;;;;;;5041852;28;20286;-64
2022/03/06 11:04:06;;;;;;;2.13;2.03;;;9.40;99.40;;;;;;5050527;28;20217;-63
2022/03/06 11:06:39;;;;;;;2.75;2.65;;;9.50;98.60;;;;;;5040464;28;20272;-65
2022/03/06 11:09:12;;;;;;;2.40;2.30;;;9.40;98.70;;;;;;5045207;28;20205;-62
2022/03/06 11:11:40;;;;;;;2.00;1.90;;;9.60;99.30;;;;;;5042896;28;20211;-64
2022/03/06 11:14:08;;;;;;;2.20;2.10;;;9.70;99.00;;;;;;5046344;28;20193;-64
2022/03/06 11:16:37;;;;;;;2.13;2.03;;;9.80;99.60;;;;;;5044918;28;20196;-62
2022/03/06 11:19:04;;;;;;;2.10;2.00;;;10.10;97.90;;;;;;5041381;28;20208;-63
2022/03/06 11:21:33;;;;;;;2.10;2.00;;;10.30;98.40;;;;;;5045114;28;20223;-63
2022/03/06 11:24:02;;;;;;;2.60;2.50;;;10.40;97.70;;;;;;5044960;28;20226;-64
2022/03/06 11:26:50;;;;;;;2.58;2.47;;;10.50;97.50;;;;;;5042094;28;20930;-62
2022/03/06 11:29:40;;;;;;;2.45;2.35;;;10.50;96.50;;;;;;5028427;28;20296;-63
2022/03/06 11:32:08;;;;;;;2.45;2.35;;;10.00;95.70;;;;;;5039365;28;20196;-64
2022/03/06 11:34:37;;;;;;;2.22;2.13;;;10.10;96.20;;;;;;5042952;28;20273;-64
2022/03/06 11:37:07;;;;;;;2.45;2.35;;;10.20;96.90;;;;;;5045439;28;20307;-63
2022/03/06 11:39:48;;;;;;;2.42;2.20;;;10.50;96.90;;;;;;5045020;28;20238;-62
2022/03/06 11:42:52;;;;;;;2.40;2.30;;;10.50;96.10;;;;;;5041549;28;20235;-62
2022/03/06 11:45:52;;;;;;;2.10;2.00;;;10.60;95.90;;;;;;5040380;28;20200;-63
2022/03/06 11:48:28;;;;;;;2.50;2.40;;;10.70;95.70;;;;;;5047323;28;20307;-62
2022/03/06 11:51:18;;;;;;;2.47;2.38;;;10.70;95.70;;;;;;5045704;28;20640;-63
2022/03/06 11:53:48;;;;;;;2.20;2.10;;;10.40;95.00;;;;;;5042728;28;20192;-62
2022/03/06 11:56:45;;;;;;;2.20;2.10;;;10.40;95.10;;;;;;5040334;28;20200;-65
2022/03/06 11:59:23;;;;;;;2.13;2.03;;;10.40;95.10;;;;;;5040088;28;20241;-63
2022/03/06 12:01:54;;;;;;;2.72;2.53;;;10.70;95.20;;;;;;5047318;28;20211;-63
2022/03/06 12:04:22;;;;;;;2.20;2.10;;;10.40;94.30;;;;;;5039016;28;20857;-63
2022/03/06 12:06:51;;;;;;;2.20;2.10;;;10.40;94.70;;;;;;5050284;28;20224;-64
2022/03/06 12:09:19;;;;;;;2.10;2.00;;;10.50;94.80;;;;;;5044543;28;20271;-62
2022/03/06 12:11:48;;;;;;;2.28;2.17;;;10.60;94.60;;;;;;5044119;28;20204;-63
2022/03/06 12:14:20;;;;;;;2.20;2.10;;;10.70;94.00;;;;;;5048347;28;20290;-67
2022/03/06 12:17:20;;;;;;;2.10;2.00;;;10.80;94.70;;;;;;5043931;28;20220;-64
2022/03/06 12:20:18;;;;;;;2.20;2.10;;;10.70;94.10;;;;;;5044004;28;20196;-63
2022/03/06 12:22:48;;;;;;;2.05;1.95;;;10.70;93.30;;;;;;5043525;28;20208;-63
2022/03/06 12:25:20;;;;;;;2.15;2.05;;;10.70;93.50;;;;;;5072390;22;20220;-66
2022/03/06 12:28:19;;;;;;;2.15;2.05;;;10.80;93.30;;;;;;5058617;28;20690;-66
2022/03/06 12:30:47;;;;;;;2.20;2.10;;;10.80;93.30;;;;;;5064399;28;20256;-65
2022/03/06 12:33:42;;;;;;;2.10;2.00;;;10.90;93.80;;;;;;5053387;28;20227;-66
2022/03/06 12:36:20;;;;;;;2.20;2.10;;;11.00;93.20;;;;;;5037980;28;20227;-67
2022/03/06 12:38:52;;;;;;;2.08;1.98;;;10.80;93.60;;;;;;5081858;28;20192;-65
2022/03/06 12:41:19;;;;;;;2.97;2.47;;;10.60;92.90;;;;;;5063538;28;20204;-66
2022/03/06 12:43:49;;;;;;;2.20;2.10;;;10.30;92.90;;;;;;5069972;28;20652;-65
2022/03/06 12:46:18;;;;;;;2.35;2.25;;;10.40;93.40;;;;;;5069184;28;20591;-65
2022/03/06 12:48:51;;;;;;;2.25;2.15;;;10.40;93.90;;;;;;5068544;28;20206;-66
2022/03/06 12:51:42;;;;;;;1.88;1.77;;;10.60;94.10;;;;;;5070607;28;20199;-66
2022/03/06 12:54:27;;;;;;;2.30;2.20;;;10.70;93.10;;;;;;5054242;28;20288;-67
2022/03/06 12:56:56;;;;;;;2.20;2.10;;;10.70;93.10;;;;;;5085546;28;20246;-67
2022/03/06 12:59:23;;;;;;;1.98;1.88;;;10.70;93.10;;;;;;5075979;28;20239;-67
2022/03/06 13:01:51;;;;;;;2.08;1.98;;;10.50;92.60;;;;;;5061575;28;20712;-66
2022/03/06 13:04:22;;;;;;;2.15;2.05;;;10.50;92.90;;;;;;5064074;28;20235;-66